createdAt,value
2022-10-19T00:01:17.877Z,99063.75
2022-10-19T00:06:25.103Z,99065.63
2022-10-19T00:08:55.410Z,99065.63
2022-10-19T00:11:24.770Z,99059.56
2022-10-19T00:13:53.397Z,99056.84
2022-10-19T00:16:22.022Z,99056.84
2022-10-19T00:18:50.801Z,99047.94
2022-10-19T00:21:20.284Z,99055.00
2022-10-19T00:23:49.234Z,99046.09
2022-10-19T00:26:19.538Z,99044.22
2022-10-19T00:28:48.092Z,99050.44
2022-10-19T00:31:18.114Z,99047.94
2022-10-19T00:33:47.538Z,99057.00
2022-10-19T00:36:20.755Z,99054.31
2022-10-19T00:38:49.605Z,99060.56
2022-10-19T00:41:20.085Z,99056.03
2022-10-19T00:43:54.133Z,99051.47
2022-10-19T00:46:23.154Z,99057.00
2022-10-19T00:48:52.125Z,99052.50
2022-10-19T00:51:20.877Z,99053.34
2022-10-19T00:53:49.667Z,99049.63
2022-10-19T00:56:19.718Z,99044.41
2022-10-19T00:58:48.261Z,99036.34
2022-10-19T01:01:19.024Z,99036.50
2022-10-19T01:03:47.685Z,99031.78
2022-10-19T01:06:16.444Z,99023.03
2022-10-19T01:08:45.247Z,99023.03
2022-10-19T01:11:25.390Z,99014.94
2022-10-19T01:14:01.948Z,99015.97
2022-10-19T01:16:37.631Z,99017.63
2022-10-19T01:19:14.076Z,99011.56
2022-10-19T01:21:43.469Z,99021.34
2022-10-19T01:24:52.566Z,99008.88
2022-10-19T01:27:50.722Z,99004.16
2022-10-19T01:30:27.038Z,99008.88
2022-10-19T01:33:10.013Z,99011.41
2022-10-19T01:35:43.759Z,99015.97
2022-10-19T01:38:23.370Z,98999.28
2022-10-19T01:40:57.393Z,98999.13
2022-10-19T01:43:35.088Z,98998.97
2022-10-19T01:46:08.634Z,98999.13
2022-10-19T01:48:37.646Z,99004.34
2022-10-19T01:51:08.648Z,99007.22
2022-10-19T01:53:41.669Z,99007.06
2022-10-19T01:56:10.425Z,99012.59
2022-10-19T01:58:39.038Z,99008.88
2022-10-19T02:03:39.899Z,99015.28
2022-10-19T02:06:09.079Z,99009.91
2022-10-19T02:08:40.493Z,99001.00
2022-10-19T02:11:09.108Z,98998.28
2022-10-19T02:13:37.745Z,99005.53
2022-10-19T02:16:11.006Z,99001.00
2022-10-19T02:18:42.132Z,99006.38
2022-10-19T02:21:10.751Z,98998.09
2022-10-19T02:23:39.246Z,99000.16
2022-10-19T02:26:08.344Z,98991.19
2022-10-19T02:28:36.824Z,98992.22
2022-10-19T02:31:05.848Z,98986.84
2022-10-19T02:33:35.734Z,98986.00
2022-10-19T02:36:05.009Z,98990.56
2022-10-19T02:38:33.487Z,98980.44
2022-10-19T02:41:07.523Z,98964.47
2022-10-19T02:43:38.478Z,98986.00
2022-10-19T02:46:10.543Z,98984.31
2022-10-19T02:48:40.649Z,98989.53
2022-10-19T02:51:24.189Z,98981.44
2022-10-19T02:53:52.858Z,98995.94
2022-10-19T02:56:21.382Z,98984.31
2022-10-19T02:58:50.113Z,98988.69
2022-10-19T03:01:18.779Z,98992.22
2022-10-19T03:03:48.841Z,98991.38
2022-10-19T03:06:17.353Z,98984.31
2022-10-19T03:08:46.188Z,98987.88
2022-10-19T03:11:14.747Z,98995.94
2022-10-19T03:13:43.596Z,98988.84
2022-10-19T03:16:13.471Z,98989.53
2022-10-19T03:18:42.029Z,98982.47
2022-10-19T03:21:13.248Z,98985.16
2022-10-19T03:23:42.000Z,98992.38
2022-10-19T03:26:13.080Z,98982.63
2022-10-19T03:28:41.882Z,98979.94
2022-10-19T03:31:10.474Z,98983.47
2022-10-19T03:33:39.171Z,98993.41
2022-10-19T03:36:23.799Z,98993.41
2022-10-19T03:38:52.904Z,98986.34
2022-10-19T03:41:21.569Z,98978.28
2022-10-19T03:43:50.334Z,98983.66
2022-10-19T03:46:19.061Z,98980.09
2022-10-19T03:48:47.916Z,98983.81
2022-10-19T03:51:17.902Z,98989.03
2022-10-19T03:53:47.950Z,98991.72
2022-10-19T03:56:18.304Z,98981.94
2022-10-19T03:58:48.835Z,98979.25
2022-10-19T04:01:19.400Z,98984.66
2022-10-19T04:03:48.254Z,98991.88
2022-10-19T04:06:21.263Z,98984.66
2022-10-19T04:08:52.221Z,98985.66
2022-10-19T04:11:22.222Z,98989.19
2022-10-19T04:13:51.352Z,98990.03
2022-10-19T04:16:20.490Z,98987.34
2022-10-19T04:18:49.069Z,98988.34
2022-10-19T04:21:24.934Z,98989.03
2022-10-19T04:23:58.345Z,98982.97
2022-10-19T04:26:26.843Z,98986.50
2022-10-19T04:28:55.418Z,98991.88
2022-10-19T04:31:25.028Z,98999.81
2022-10-19T04:33:53.576Z,98988.34
2022-10-19T04:36:22.826Z,98992.72
2022-10-19T04:38:51.373Z,98987.53
2022-10-19T04:41:22.367Z,98989.19
2022-10-19T04:43:51.300Z,98990.22
2022-10-19T04:46:20.694Z,98984.84
2022-10-19T04:48:49.821Z,98978.63
2022-10-19T04:51:18.790Z,98987.69
2022-10-19T04:53:47.287Z,98986.00
2022-10-19T04:56:18.167Z,98980.44
2022-10-19T04:58:48.024Z,98986.34
2022-10-19T05:01:18.180Z,98980.63
2022-10-19T05:03:47.112Z,98964.47
2022-10-19T05:06:16.278Z,98975.22
2022-10-19T05:08:44.823Z,98969.66
2022-10-19T05:11:14.858Z,98970.34
2022-10-19T05:13:43.489Z,98962.44
2022-10-19T05:16:14.794Z,98965.78
2022-10-19T05:18:43.369Z,98959.41
2022-10-19T05:21:13.236Z,98959.22
2022-10-19T05:23:42.493Z,98962.09
2022-10-19T05:26:12.579Z,98964.13
2022-10-19T05:28:41.177Z,98953.00
2022-10-19T05:31:11.424Z,98950.66
2022-10-19T05:33:41.664Z,98960.41
2022-10-19T05:36:18.069Z,98955.38
2022-10-19T05:38:47.338Z,98955.53
2022-10-19T05:41:16.449Z,98966.13
2022-10-19T05:43:45.152Z,98970.00
2022-10-19T05:46:17.613Z,98969.16
2022-10-19T05:48:47.618Z,98968.50
2022-10-19T05:51:18.043Z,98975.91
2022-10-19T05:53:46.747Z,98980.28
2022-10-19T05:56:18.429Z,98988.69
2022-10-19T05:58:47.081Z,98984.97
2022-10-19T06:01:15.682Z,98978.09
2022-10-19T06:03:44.865Z,98975.56
2022-10-19T06:06:14.874Z,98989.03
2022-10-19T06:08:43.398Z,98994.75
2022-10-19T06:11:13.274Z,98996.44
2022-10-19T06:13:42.717Z,98996.09
2022-10-19T06:16:11.932Z,98992.38
2022-10-19T06:18:42.892Z,98994.09
2022-10-19T06:21:14.687Z,98998.59
2022-10-19T06:23:43.381Z,98998.28
2022-10-19T06:26:13.287Z,99003.66
2022-10-19T06:28:43.345Z,98999.81
2022-10-19T06:31:12.577Z,99002.44
2022-10-19T06:33:41.415Z,99011.22
2022-10-19T06:36:10.681Z,99003.66
2022-10-19T06:38:40.814Z,98998.78
2022-10-19T06:41:09.531Z,99002.31
2022-10-19T06:43:38.105Z,98999.47
2022-10-19T06:46:07.242Z,99002.44
2022-10-19T06:48:36.746Z,99001.81
2022-10-19T06:51:07.535Z,99007.53
2022-10-19T06:53:36.721Z,99017.25
2022-10-19T06:56:08.213Z,99020.03
2022-10-19T06:58:37.535Z,99020.84
2022-10-19T07:01:08.563Z,99014.19
2022-10-19T07:03:37.725Z,99017.88
2022-10-19T07:06:08.148Z,99020.91
2022-10-19T07:08:37.623Z,99031.75
2022-10-19T07:11:09.465Z,99024.00
2022-10-19T07:13:38.235Z,99033.63
2022-10-19T07:16:08.795Z,99042.47
2022-10-19T07:18:37.706Z,99051.47
2022-10-19T07:21:08.032Z,99046.41
2022-10-19T07:23:37.782Z,99044.03
2022-10-19T07:26:09.760Z,99040.88
2022-10-19T07:28:38.411Z,99041.03
2022-10-19T07:31:08.340Z,99035.84
2022-10-19T07:33:36.978Z,99037.97
2022-10-19T07:36:07.428Z,99038.59
2022-10-19T07:38:36.472Z,99028.97
2022-10-19T07:41:07.801Z,99016.06
2022-10-19T07:43:36.659Z,99033.91
2022-10-19T07:46:07.275Z,99026.56
2022-10-19T07:48:36.393Z,99037.34
2022-10-19T07:51:06.911Z,99027.97
2022-10-19T07:53:35.730Z,99027.31
2022-10-19T07:56:05.416Z,99023.47
2022-10-19T07:58:36.536Z,99038.28
2022-10-19T08:01:06.673Z,99037.78
2022-10-19T08:06:24.244Z,99036.44
2022-10-19T08:08:53.409Z,99035.44
2022-10-19T08:11:23.551Z,99039.81
2022-10-19T08:13:54.289Z,99036.13
2022-10-19T08:16:27.103Z,99039.50
2022-10-19T08:18:59.844Z,99052.13
2022-10-19T08:21:28.579Z,99046.53
2022-10-19T08:23:57.291Z,99048.25
2022-10-19T08:26:25.859Z,99038.66
2022-10-19T08:29:00.529Z,99040.34
2022-10-19T08:31:29.042Z,99033.94
2022-10-19T08:33:57.780Z,99026.72
2022-10-19T08:36:28.563Z,99025.84
2022-10-19T08:38:57.169Z,99025.84
2022-10-19T08:41:31.909Z,99021.34
2022-10-19T08:44:26.000Z,99031.22
2022-10-19T08:47:05.220Z,99041.16
2022-10-19T08:49:35.841Z,99028.72
2022-10-19T08:52:08.684Z,99040.34
2022-10-19T08:54:42.503Z,99038.47
2022-10-19T08:57:16.889Z,99035.09
2022-10-19T08:59:51.157Z,99036.94
2022-10-19T09:02:23.668Z,99046.88
2022-10-19T09:04:55.529Z,99044.19
2022-10-19T09:07:28.968Z,99041.50
2022-10-19T09:09:59.730Z,99050.59
2022-10-19T09:12:36.973Z,99049.72
2022-10-19T09:15:11.333Z,99061.34
2022-10-19T09:17:39.811Z,99059.50
2022-10-19T09:20:19.850Z,99059.50
2022-10-19T09:22:52.188Z,99057.66
2022-10-19T09:25:22.195Z,99065.56
2022-10-19T09:27:54.296Z,99066.41
2022-10-19T09:30:24.669Z,99052.94
2022-10-19T09:32:59.728Z,99060.00
2022-10-19T09:35:31.438Z,99061.88
2022-10-19T09:37:59.936Z,99059.31
2022-10-19T09:40:30.189Z,99061.88
2022-10-19T09:42:59.442Z,99061.19
2022-10-19T09:45:37.794Z,99062.00
2022-10-19T09:48:15.415Z,99061.03
2022-10-19T09:50:44.992Z,99060.34
2022-10-19T09:53:20.094Z,99058.34
2022-10-19T09:55:51.494Z,99064.69
2022-10-19T09:58:20.731Z,99071.78
2022-10-19T10:00:51.846Z,99072.63
2022-10-19T10:03:26.944Z,99067.41
2022-10-19T10:05:58.125Z,99063.88
2022-10-19T10:08:31.206Z,99069.94
2022-10-19T10:11:08.098Z,99078.00
2022-10-19T10:13:40.816Z,99072.63
2022-10-19T10:16:12.615Z,99073.47
2022-10-19T10:18:55.105Z,99065.38
2022-10-19T10:21:25.896Z,99066.41
2022-10-19T10:24:05.385Z,99066.41
2022-10-19T10:29:04.230Z,99049.25
2022-10-19T10:31:34.289Z,99057.16
2022-10-19T10:34:11.160Z,99062.38
2022-10-19T10:36:52.637Z,99055.31
2022-10-19T10:39:21.375Z,99067.94
2022-10-19T10:41:50.085Z,99061.72
2022-10-19T10:44:22.063Z,99063.53
2022-10-19T10:46:57.290Z,99071.59
2022-10-19T10:49:28.701Z,99063.53
2022-10-19T10:51:58.809Z,99059.84
2022-10-19T10:54:28.447Z,99061.72
2022-10-19T10:57:16.697Z,99060.84
2022-10-19T10:59:56.541Z,99055.63
2022-10-19T11:02:36.190Z,99060.19
2022-10-19T11:05:26.594Z,99056.47
2022-10-19T11:08:00.088Z,99042.19
2022-10-19T11:10:31.386Z,99055.63
2022-10-19T11:13:05.609Z,99062.88
2022-10-19T11:15:38.229Z,99058.34
2022-10-19T11:18:17.616Z,99057.50
2022-10-19T11:20:53.593Z,99051.25
2022-10-19T11:23:41.894Z,99052.28
2022-10-19T11:26:34.792Z,99049.41
2022-10-19T11:29:30.339Z,99043.16
2022-10-19T11:31:58.948Z,99043.16
2022-10-19T11:34:44.789Z,99046.88
2022-10-19T11:37:21.223Z,99045.03
2022-10-19T11:40:00.236Z,99035.78
2022-10-19T11:42:42.695Z,99035.78
2022-10-19T11:45:18.631Z,99033.94
2022-10-19T11:48:12.907Z,99033.09
2022-10-19T11:50:58.400Z,99026.72
2022-10-19T11:53:34.859Z,99028.72
2022-10-19T11:56:07.857Z,99036.94
2022-10-19T11:58:45.350Z,99029.72
2022-10-19T12:01:22.277Z,99027.03
2022-10-19T12:04:20.483Z,99035.97
2022-10-19T12:06:57.957Z,99027.03
2022-10-19T12:09:35.510Z,99027.03
2022-10-19T12:12:26.423Z,99010.03
2022-10-19T12:15:14.726Z,99010.88
2022-10-19T12:17:44.805Z,99016.25
2022-10-19T12:20:21.634Z,99012.72
2022-10-19T12:22:51.659Z,99008.38
2022-10-19T12:25:20.355Z,99014.59
2022-10-19T12:27:50.811Z,99006.34
2022-10-19T12:30:20.988Z,99006.50
2022-10-19T12:33:03.390Z,99003.81
2022-10-19T12:35:55.872Z,99006.50
2022-10-19T12:38:30.903Z,99005.50
2022-10-19T12:41:05.173Z,99011.75
2022-10-19T12:43:39.583Z,99005.50
2022-10-19T12:46:16.258Z,99003.81
2022-10-19T12:48:44.968Z,99009.19
2022-10-19T12:51:16.453Z,99003.97
2022-10-19T12:53:49.120Z,99012.22
2022-10-19T12:56:23.261Z,99001.47
2022-10-19T12:58:55.506Z,99006.84
2022-10-19T13:01:27.375Z,99007.69
2022-10-19T13:04:09.993Z,99007.69
2022-10-19T13:06:39.929Z,99012.22
2022-10-19T13:09:10.902Z,99014.59
2022-10-19T13:11:39.431Z,99013.91
2022-10-19T13:14:08.858Z,99008.53
2022-10-19T13:16:59.116Z,99007.69
2022-10-19T13:19:27.782Z,99016.44
2022-10-19T13:22:29.315Z,99020.13
2022-10-19T13:25:27.161Z,99013.91
2022-10-19T13:27:58.039Z,99015.59
2022-10-19T13:31:08.214Z,99011.88
2022-10-19T13:33:52.956Z,99028.03
2022-10-19T13:36:22.160Z,99019.28
2022-10-19T13:39:13.934Z,99027.34
2022-10-19T13:41:53.901Z,99027.34
2022-10-19T13:44:28.561Z,99020.31
2022-10-19T13:47:12.449Z,99019.13
2022-10-19T13:50:01.557Z,99016.25
2022-10-19T13:53:09.242Z,99018.13
2022-10-19T13:56:23.273Z,99033.41
2022-10-19T14:00:03.531Z,99012.56
2022-10-19T14:02:59.681Z,99016.25
2022-10-19T14:05:53.789Z,99009.19
2022-10-19T14:09:01.323Z,99007.53
2022-10-19T14:11:33.383Z,99019.13
2022-10-19T14:14:18.977Z,99006.66
2022-10-19T14:16:50.392Z,99017.44
2022-10-19T14:19:27.167Z,99018.28
2022-10-19T14:21:57.780Z,99033.56
2022-10-19T14:24:31.207Z,99037.13
2022-10-19T14:27:02.258Z,99030.22
2022-10-19T14:29:44.611Z,99023.81
2022-10-19T14:32:13.371Z,99025.69
2022-10-19T14:34:43.930Z,99041.84
2022-10-19T14:37:16.062Z,99023.00
2022-10-19T14:39:44.537Z,99024.66
2022-10-19T14:42:13.591Z,99018.44
2022-10-19T14:44:43.187Z,99038.81
2022-10-19T14:47:21.453Z,99027.75
2022-10-19T14:49:51.415Z,99022.81
2022-10-19T14:52:22.993Z,99023.03
2022-10-19T14:54:53.013Z,99032.00
2022-10-19T14:57:25.840Z,99029.59
2022-10-19T14:59:55.968Z,99018.09
2022-10-19T15:02:26.227Z,99010.03
2022-10-19T15:04:56.443Z,99017.34
2022-10-19T15:07:27.348Z,99019.81
2022-10-19T15:09:57.395Z,99028.44
2022-10-19T15:12:29.617Z,99030.81
2022-10-19T15:15:00.465Z,99020.59
2022-10-19T15:17:30.356Z,99026.22
2022-10-19T15:20:01.542Z,99028.19
2022-10-19T15:22:41.058Z,99029.16
2022-10-19T15:25:36.936Z,99035.63
2022-10-19T15:28:22.836Z,99033.31
2022-10-19T15:31:01.686Z,99032.00
2022-10-19T15:33:30.226Z,99041.59
2022-10-19T15:36:08.644Z,99033.38
2022-10-19T15:38:37.200Z,99037.03
2022-10-19T15:41:06.225Z,99046.19
2022-10-19T15:43:52.766Z,99045.38
2022-10-19T15:46:32.695Z,99040.38
2022-10-19T15:49:04.403Z,99043.06
2022-10-19T15:51:55.398Z,99057.50
2022-10-19T15:54:24.030Z,99049.59
2022-10-19T15:56:54.014Z,99051.28
2022-10-19T15:59:23.840Z,99061.41
2022-10-19T16:01:53.789Z,99063.63
2022-10-19T16:04:24.537Z,99067.81
2022-10-19T16:06:53.394Z,99070.00
2022-10-19T16:09:23.654Z,99063.06
2022-10-19T16:11:56.823Z,99065.09
2022-10-19T16:14:26.512Z,99074.31
2022-10-19T16:16:55.700Z,99079.38
2022-10-19T16:19:24.336Z,99087.63
2022-10-19T16:21:52.991Z,99093.56
2022-10-19T16:24:22.988Z,99086.00
2022-10-19T16:26:51.659Z,99096.63
2022-10-19T16:29:20.218Z,99080.47
2022-10-19T16:31:48.753Z,99091.00
2022-10-19T16:34:17.421Z,99089.38
2022-10-19T16:36:46.111Z,99086.03
2022-10-19T16:39:15.196Z,99091.41
2022-10-19T16:41:45.369Z,99096.47
2022-10-19T16:44:14.002Z,99095.16
2022-10-19T16:46:42.502Z,99110.28
2022-10-19T16:49:11.319Z,99095.84
2022-10-19T16:51:40.533Z,99086.75
2022-10-19T16:54:10.223Z,99094.66
2022-10-19T16:56:39.382Z,99107.94
2022-10-19T16:59:09.311Z,99100.56
2022-10-19T17:01:37.990Z,99105.94
2022-10-19T17:04:06.816Z,99109.34
2022-10-19T17:06:35.396Z,99107.28
2022-10-19T17:11:52.866Z,99117.41
2022-10-19T17:14:23.119Z,99119.06
2022-10-19T17:16:51.668Z,99120.75
2022-10-19T17:19:20.299Z,99118.94
2022-10-19T17:21:49.543Z,99123.28
2022-10-19T17:24:21.975Z,99121.63
2022-10-19T17:26:51.761Z,99121.44
2022-10-19T17:29:23.705Z,99123.47
2022-10-19T17:31:52.360Z,99131.28
2022-10-19T17:34:20.969Z,99133.25
2022-10-19T17:36:49.754Z,99140.63
2022-10-19T17:39:21.464Z,99133.56
2022-10-19T17:41:52.341Z,99142.63
2022-10-19T17:44:22.988Z,99146.00
2022-10-19T17:46:51.515Z,99142.31
2022-10-19T17:49:19.990Z,99155.81
2022-10-19T17:51:48.769Z,99155.81
2022-10-19T17:54:17.293Z,99163.91
2022-10-19T17:56:46.227Z,99162.59
2022-10-19T17:59:14.866Z,99154.66
2022-10-19T18:01:44.792Z,99160.91
2022-10-19T18:04:13.401Z,99156.53
2022-10-19T18:06:42.111Z,99163.59
2022-10-19T18:09:13.718Z,99163.75
2022-10-19T18:11:44.858Z,99158.22
2022-10-19T18:14:14.563Z,99162.59
2022-10-19T18:16:45.812Z,99160.91
2022-10-19T18:19:14.612Z,99161.91
2022-10-19T18:21:45.307Z,99158.69
2022-10-19T18:24:19.674Z,99159.22
2022-10-19T18:26:48.366Z,99171.00
2022-10-19T18:29:17.922Z,99171.69
2022-10-19T18:31:51.483Z,99166.44
2022-10-19T18:34:21.630Z,99165.59
2022-10-19T18:36:50.379Z,99173.69
2022-10-19T18:39:18.939Z,99171.81
2022-10-19T18:41:49.345Z,99176.19
2022-10-19T18:44:23.525Z,99170.66
2022-10-19T18:46:56.576Z,99176.38
2022-10-19T18:49:25.502Z,99173.34
2022-10-19T18:51:55.723Z,99183.28
2022-10-19T18:54:26.498Z,99184.44
2022-10-19T18:56:56.028Z,99189.50
2022-10-19T18:59:24.619Z,99198.59
2022-10-19T19:01:53.288Z,99192.19
2022-10-19T19:04:23.359Z,99189.50
2022-10-19T19:06:51.999Z,99197.44
2022-10-19T19:09:21.292Z,99193.03
2022-10-19T19:11:50.158Z,99199.44
2022-10-19T19:14:20.993Z,99192.34
2022-10-19T19:16:49.569Z,99195.22
2022-10-19T19:19:19.221Z,99196.19
2022-10-19T19:21:49.980Z,99201.56
2022-10-19T19:24:19.969Z,99206.97
2022-10-19T19:26:50.151Z,99205.97
2022-10-19T19:29:18.967Z,99198.88
2022-10-19T19:31:47.886Z,99206.81
2022-10-19T19:34:16.454Z,99208.81
2022-10-19T19:36:48.047Z,99215.03
2022-10-19T19:39:21.102Z,99220.41
2022-10-19T19:41:50.160Z,99225.81
2022-10-19T19:44:19.287Z,99231.19
2022-10-19T19:46:47.885Z,99225.81
2022-10-19T19:49:16.574Z,99222.13
2022-10-19T19:51:45.062Z,99225.97
2022-10-19T19:54:13.814Z,99229.50
2022-10-19T19:56:43.766Z,99236.56
2022-10-19T19:59:14.376Z,99241.94
2022-10-19T20:01:43.021Z,99239.44
2022-10-19T20:04:11.992Z,99244.81
2022-10-19T20:06:40.924Z,99247.50
2022-10-19T20:09:10.693Z,99251.03
2022-10-19T20:11:42.313Z,99259.09
2022-10-19T20:14:13.362Z,99251.03
2022-10-19T20:16:41.857Z,99250.72
2022-10-19T20:19:11.948Z,99259.81
2022-10-19T20:21:40.456Z,99253.56
2022-10-19T20:24:09.046Z,99254.75
2022-10-19T20:26:37.594Z,99256.41
2022-10-19T20:29:13.378Z,99257.44
2022-10-19T20:31:42.309Z,99258.09
2022-10-19T20:34:12.355Z,99265.19
2022-10-19T20:36:41.022Z,99267.03
2022-10-19T20:39:09.726Z,99271.53
2022-10-19T20:41:38.313Z,99264.34
2022-10-19T20:44:07.097Z,99267.19
2022-10-19T20:46:37.823Z,99264.16
2022-10-19T20:49:07.401Z,99264.03
2022-10-19T20:51:37.183Z,99254.78
2022-10-19T20:54:07.618Z,99256.78
2022-10-19T20:56:37.361Z,99261.16
2022-10-19T20:59:07.737Z,99262.03
2022-10-19T21:01:39.041Z,99261.16
2022-10-19T21:04:09.586Z,99261.84
2022-10-19T21:06:40.690Z,99265.38
2022-10-19T21:09:09.402Z,99264.53
2022-10-19T21:11:39.738Z,99261.84
2022-10-19T21:14:09.554Z,99259.16
2022-10-19T21:16:41.101Z,99249.41
2022-10-19T21:19:13.929Z,99262.03
2022-10-19T21:21:43.813Z,99258.47
2022-10-19T21:24:13.821Z,99258.63
2022-10-19T21:26:42.392Z,99258.78
2022-10-19T21:29:11.451Z,99254.41
2022-10-19T21:31:44.133Z,99258.97
2022-10-19T21:34:16.446Z,99262.50
2022-10-19T21:36:45.112Z,99262.50
2022-10-19T21:39:13.675Z,99255.41
2022-10-19T21:41:42.401Z,99258.28
2022-10-19T21:44:10.891Z,99260.97
2022-10-19T21:46:40.887Z,99253.88
2022-10-19T21:49:10.719Z,99260.13
2022-10-19T21:51:42.631Z,99245.13
2022-10-19T21:54:14.623Z,99252.19
2022-10-19T21:56:43.261Z,99252.06
2022-10-19T21:59:27.330Z,99253.03
2022-10-19T22:02:06.952Z,99259.44
2022-10-19T22:04:35.581Z,99256.75
2022-10-19T22:07:05.335Z,99257.56
2022-10-19T22:09:34.196Z,99258.59
2022-10-19T22:12:02.952Z,99253.34
2022-10-19T22:14:31.636Z,99264.13
2022-10-19T22:17:00.165Z,99263.25
2022-10-19T22:19:30.243Z,99263.25
2022-10-19T22:21:58.750Z,99263.25
2022-10-19T22:24:27.324Z,99266.97
2022-10-19T22:26:56.005Z,99258.72
2022-10-19T22:29:24.636Z,99259.56
2022-10-19T22:31:53.167Z,99259.72
2022-10-19T22:34:21.769Z,99267.66
2022-10-19T22:36:51.671Z,99257.03
2022-10-19T22:39:20.361Z,99260.56
2022-10-19T22:43:06.118Z,99257.03
2022-10-19T22:45:35.657Z,99266.09
2022-10-19T22:48:04.221Z,99266.09
2022-10-19T22:50:32.918Z,99267.78
2022-10-19T22:53:02.892Z,99268.94
2022-10-19T22:55:31.605Z,99274.16
2022-10-19T22:58:00.326Z,99280.56
2022-10-19T23:00:29.118Z,99278.56
2022-10-19T23:02:57.719Z,99286.78
2022-10-19T23:05:26.457Z,99276.84
2022-10-19T23:07:55.096Z,99276.00
2022-10-19T23:10:25.257Z,99281.41
2022-10-19T23:12:54.210Z,99283.25
2022-10-19T23:15:23.071Z,99282.41
2022-10-19T23:17:51.715Z,99280.56
2022-10-19T23:20:20.424Z,99290.31
2022-10-19T23:22:48.938Z,99296.84
2022-10-19T23:25:17.895Z,99290.63
2022-10-19T23:27:49.435Z,99297.72
2022-10-19T23:30:18.437Z,99293.31
2022-10-19T23:32:47.010Z,99286.06
2022-10-19T23:35:15.925Z,99280.69
2022-10-19T23:37:44.565Z,99296.00
2022-10-19T23:40:13.944Z,99293.31
2022-10-19T23:42:42.465Z,99298.69
2022-10-19T23:45:15.240Z,99305.09
2022-10-19T23:47:43.733Z,99311.31
2022-10-19T23:50:12.264Z,99304.06
2022-10-19T23:52:41.803Z,99300.69
2022-10-19T23:55:10.980Z,99300.69
2022-10-19T23:57:39.608Z,99306.75
